createdAt,value
2023-05-05T00:01:53.700Z,18.10
2023-05-05T00:04:22.951Z,17.90
2023-05-05T00:06:50.710Z,18.00
2023-05-05T00:09:18.190Z,17.90
2023-05-05T00:11:45.168Z,17.80
2023-05-05T00:14:12.309Z,17.80
2023-05-05T00:16:39.407Z,17.70
2023-05-05T00:19:06.814Z,17.80
2023-05-05T00:21:33.792Z,17.70
2023-05-05T00:24:00.790Z,17.60
2023-05-05T00:26:27.886Z,17.60
2023-05-05T00:28:56.014Z,17.50
2023-05-05T00:31:23.842Z,17.30
2023-05-05T00:33:50.971Z,17.30
2023-05-05T00:36:18.433Z,17.20
2023-05-05T00:38:45.347Z,17.20
2023-05-05T00:41:12.384Z,17.30
2023-05-05T00:43:39.443Z,17.00
2023-05-05T00:46:24.756Z,17.00
2023-05-05T00:48:52.654Z,16.90
2023-05-05T00:51:21.576Z,16.90
2023-05-05T00:53:49.825Z,17.00
2023-05-05T00:56:22.120Z,17.00
2023-05-05T00:58:49.891Z,16.90
2023-05-05T01:01:18.133Z,16.90
2023-05-05T01:03:45.470Z,16.90
2023-05-05T01:06:40.074Z,16.70
2023-05-05T01:09:21.028Z,16.70
2023-05-05T01:12:32.305Z,16.60
2023-05-05T01:15:29.236Z,16.40
2023-05-05T01:18:07.094Z,16.40
2023-05-05T01:20:40.764Z,16.20
2023-05-05T01:23:10.014Z,16.20
2023-05-05T01:25:49.510Z,16.10
2023-05-05T01:28:27.959Z,16.00
2023-05-05T01:31:23.671Z,16.00
2023-05-05T01:33:59.689Z,16.00
2023-05-05T01:36:32.771Z,15.80
2023-05-05T01:39:02.158Z,15.90
2023-05-05T01:41:38.155Z,15.90
2023-05-05T01:44:06.360Z,15.80
2023-05-05T01:46:35.266Z,15.80
2023-05-05T01:49:02.358Z,15.80
2023-05-05T01:51:30.937Z,15.60
2023-05-05T01:54:03.374Z,15.50
2023-05-05T01:56:32.366Z,15.40
2023-05-05T01:59:01.042Z,15.30
2023-05-05T02:01:29.687Z,15.40
2023-05-05T02:03:57.823Z,15.40
2023-05-05T02:06:30.036Z,15.30
2023-05-05T02:08:58.423Z,15.30
2023-05-05T02:11:27.775Z,15.30
2023-05-05T02:13:56.561Z,15.30
2023-05-05T02:16:24.388Z,15.20
2023-05-05T02:18:52.971Z,15.00
2023-05-05T02:21:21.030Z,15.00
2023-05-05T02:23:52.037Z,15.00
2023-05-05T02:26:21.942Z,14.90
2023-05-05T02:28:58.813Z,14.90
2023-05-05T02:31:28.409Z,14.80
2023-05-05T02:33:58.530Z,14.70
2023-05-05T02:36:29.685Z,14.70
2023-05-05T02:39:07.286Z,14.80
2023-05-05T02:41:39.847Z,14.70
2023-05-05T02:44:15.652Z,14.70
2023-05-05T02:46:43.206Z,14.70
2023-05-05T02:49:10.421Z,14.60
2023-05-05T02:51:39.635Z,14.60
2023-05-05T02:54:14.458Z,14.60
2023-05-05T02:56:51.043Z,14.60
2023-05-05T02:59:27.825Z,14.60
2023-05-05T03:02:07.992Z,14.60
2023-05-05T03:04:40.902Z,14.50
2023-05-05T03:07:16.020Z,14.60
2023-05-05T03:10:00.402Z,14.50
2023-05-05T03:12:34.067Z,14.40
2023-05-05T03:15:13.989Z,14.50
2023-05-05T03:17:43.075Z,14.40
2023-05-05T03:20:13.529Z,14.30
2023-05-05T03:22:43.539Z,14.20
2023-05-05T03:25:13.577Z,14.20
2023-05-05T03:27:41.275Z,14.10
2023-05-05T03:30:10.233Z,14.10
2023-05-05T03:32:45.161Z,14.00
2023-05-05T03:35:12.223Z,13.90
2023-05-05T03:37:39.627Z,14.00
2023-05-05T03:40:08.243Z,13.90
2023-05-05T03:42:35.505Z,13.80
2023-05-05T03:45:02.671Z,13.90
2023-05-05T03:47:29.996Z,13.80
2023-05-05T03:49:58.130Z,13.80
2023-05-05T03:52:25.766Z,13.90
2023-05-05T03:54:54.224Z,13.80
2023-05-05T03:57:21.222Z,13.80
2023-05-05T03:59:48.299Z,13.80
2023-05-05T04:02:18.437Z,13.80
2023-05-05T04:04:46.082Z,13.80
2023-05-05T04:07:13.650Z,13.80
2023-05-05T04:09:44.556Z,13.70
2023-05-05T04:12:12.458Z,13.70
2023-05-05T04:14:40.329Z,13.70
2023-05-05T04:17:08.417Z,13.60
2023-05-05T04:19:35.839Z,13.50
2023-05-05T04:22:03.646Z,13.50
2023-05-05T04:24:31.784Z,13.50
2023-05-05T04:26:59.691Z,13.50
2023-05-05T04:29:28.377Z,13.50
2023-05-05T04:31:56.251Z,13.60
2023-05-05T04:34:23.511Z,13.60
2023-05-05T04:36:51.523Z,13.60
2023-05-05T04:39:19.496Z,13.60
2023-05-05T04:41:46.959Z,13.60
2023-05-05T04:44:14.744Z,13.50
2023-05-05T04:46:42.406Z,13.60
2023-05-05T04:49:09.566Z,13.50
2023-05-05T04:51:36.745Z,13.60
2023-05-05T04:54:04.647Z,13.60
2023-05-05T04:56:32.256Z,13.50
2023-05-05T04:58:59.305Z,13.70
2023-05-05T05:01:26.550Z,13.80
2023-05-05T05:03:53.687Z,13.80
2023-05-05T05:06:20.726Z,13.70
2023-05-05T05:08:47.775Z,13.70
2023-05-05T05:11:14.837Z,13.80
2023-05-05T05:13:41.985Z,14.00
2023-05-05T05:16:08.978Z,14.00
2023-05-05T05:18:36.020Z,14.10
2023-05-05T05:21:03.815Z,14.00
2023-05-05T05:23:32.796Z,14.10
2023-05-05T05:26:00.193Z,13.90
2023-05-05T05:28:27.822Z,14.00
2023-05-05T05:30:58.365Z,14.00
2023-05-05T05:33:25.969Z,14.10
2023-05-05T05:35:55.311Z,14.10
2023-05-05T05:38:22.392Z,14.10
2023-05-05T05:40:54.933Z,14.10
2023-05-05T05:43:23.821Z,14.10
2023-05-05T05:45:52.017Z,14.20
2023-05-05T05:48:21.448Z,14.30
2023-05-05T05:50:48.608Z,14.30
2023-05-05T05:53:15.855Z,14.30
2023-05-05T05:55:45.630Z,14.30
2023-05-05T05:58:14.380Z,14.40
2023-05-05T06:00:42.099Z,14.40
2023-05-05T06:03:10.416Z,14.50
2023-05-05T06:05:39.171Z,14.60
2023-05-05T06:08:09.191Z,14.70
2023-05-05T06:10:42.037Z,14.70
2023-05-05T06:13:14.286Z,14.80
2023-05-05T06:15:45.191Z,14.80
2023-05-05T06:18:13.974Z,14.90
2023-05-05T06:20:41.658Z,14.90
2023-05-05T06:23:08.677Z,14.90
2023-05-05T06:25:39.496Z,15.00
2023-05-05T06:28:07.267Z,15.10
2023-05-05T06:30:34.567Z,15.10
2023-05-05T06:33:01.566Z,15.10
2023-05-05T06:35:30.309Z,15.10
2023-05-05T06:37:57.373Z,15.10
2023-05-05T06:40:24.457Z,15.10
2023-05-05T06:42:51.478Z,15.10
2023-05-05T06:45:23.453Z,15.20
2023-05-05T06:47:50.545Z,15.20
2023-05-05T06:50:17.602Z,15.30
2023-05-05T06:52:44.576Z,15.40
2023-05-05T06:55:12.049Z,15.50
2023-05-05T06:57:39.053Z,15.60
2023-05-05T07:00:10.082Z,15.80
2023-05-05T07:02:38.980Z,15.80
2023-05-05T07:05:06.413Z,15.90
2023-05-05T07:07:33.647Z,16.10
2023-05-05T07:10:00.968Z,16.20
2023-05-05T07:12:33.024Z,16.30
2023-05-05T07:15:04.786Z,16.30
2023-05-05T07:17:36.621Z,16.50
2023-05-05T07:20:03.889Z,16.60
2023-05-05T07:22:30.895Z,16.70
2023-05-05T07:24:57.871Z,16.80
2023-05-05T07:27:25.269Z,16.90
2023-05-05T07:29:52.177Z,17.00
2023-05-05T07:32:20.290Z,17.00
2023-05-05T07:34:47.299Z,17.10
2023-05-05T07:37:14.295Z,17.30
2023-05-05T07:39:41.407Z,17.50
2023-05-05T07:42:08.392Z,17.50
2023-05-05T07:44:35.363Z,17.40
2023-05-05T07:47:02.775Z,17.40
2023-05-05T07:49:29.700Z,17.50
2023-05-05T07:51:56.864Z,17.60
2023-05-05T07:54:23.979Z,17.60
2023-05-05T07:56:50.988Z,17.70
2023-05-05T07:59:18.385Z,17.80
2023-05-05T08:01:45.345Z,17.80
2023-05-05T08:04:12.399Z,17.90
2023-05-05T08:06:39.488Z,18.00
2023-05-05T08:09:06.585Z,18.10
2023-05-05T08:11:33.616Z,18.30
2023-05-05T08:14:00.675Z,18.40
2023-05-05T08:16:27.761Z,18.40
2023-05-05T08:18:55.698Z,18.40
2023-05-05T08:21:22.696Z,18.30
2023-05-05T08:23:49.633Z,18.30
2023-05-05T08:26:16.656Z,18.40
2023-05-05T08:28:43.702Z,18.50
2023-05-05T08:31:10.725Z,18.60
2023-05-05T08:33:37.715Z,18.50
2023-05-05T08:36:05.486Z,18.40
2023-05-05T08:38:32.515Z,18.30
2023-05-05T08:40:59.647Z,18.30
2023-05-05T08:43:26.646Z,18.20
2023-05-05T08:45:56.277Z,18.30
2023-05-05T08:48:27.684Z,18.20
2023-05-05T08:51:07.902Z,18.10
2023-05-05T08:54:11.632Z,18.00
2023-05-05T08:56:43.640Z,18.00
2023-05-05T08:59:11.198Z,18.00
2023-05-05T09:01:38.621Z,18.00
2023-05-05T09:04:07.799Z,18.00
2023-05-05T09:06:36.199Z,18.00
2023-05-05T09:09:03.312Z,18.10
2023-05-05T09:11:31.028Z,18.10
2023-05-05T09:13:58.044Z,18.10
2023-05-05T09:16:26.942Z,18.10
2023-05-05T09:19:04.568Z,18.20
2023-05-05T09:21:32.346Z,18.30
2023-05-05T09:24:10.846Z,18.30
2023-05-05T09:26:46.360Z,18.30
2023-05-05T09:29:20.176Z,18.20
2023-05-05T09:32:05.498Z,18.30
2023-05-05T09:34:35.078Z,18.10
2023-05-05T09:37:02.051Z,18.00
2023-05-05T09:39:29.214Z,17.90
2023-05-05T09:41:56.331Z,17.90
2023-05-05T09:44:37.406Z,18.00
2023-05-05T09:47:07.361Z,17.90
2023-05-05T09:49:39.188Z,17.90
2023-05-05T09:52:14.894Z,17.90
2023-05-05T09:54:43.238Z,17.90
2023-05-05T09:57:29.343Z,17.80
2023-05-05T10:00:04.556Z,17.80
2023-05-05T10:02:38.257Z,17.50
2023-05-05T10:05:18.617Z,17.40
2023-05-05T10:07:47.560Z,17.30
2023-05-05T10:10:17.112Z,17.10
2023-05-05T10:12:47.099Z,16.70
2023-05-05T10:15:15.970Z,16.40
2023-05-05T10:18:05.373Z,16.20
2023-05-05T10:20:36.302Z,16.10
2023-05-05T10:23:08.262Z,16.00
2023-05-05T10:25:42.410Z,15.70
2023-05-05T10:28:16.867Z,15.60
2023-05-05T10:30:46.394Z,15.60
2023-05-05T10:33:31.551Z,15.50
2023-05-05T10:36:05.502Z,15.40
2023-05-05T10:38:34.134Z,15.40
2023-05-05T10:41:04.374Z,15.30
2023-05-05T10:43:32.049Z,15.50
2023-05-05T10:46:00.104Z,15.30
2023-05-05T10:48:42.705Z,15.40
2023-05-05T10:51:35.243Z,15.20
2023-05-05T10:54:27.609Z,15.30
2023-05-05T10:56:55.163Z,15.30
2023-05-05T10:59:37.413Z,15.10
2023-05-05T11:02:25.291Z,15.10
2023-05-05T11:05:14.374Z,15.10
2023-05-05T11:07:46.521Z,15.00
2023-05-05T11:10:16.479Z,14.80
2023-05-05T11:12:57.767Z,14.70
2023-05-05T11:15:27.839Z,15.00
2023-05-05T11:17:59.083Z,15.00
2023-05-05T11:20:40.937Z,15.20
2023-05-05T11:23:08.100Z,15.20
2023-05-05T11:25:39.097Z,15.20
2023-05-05T11:28:06.666Z,15.20
2023-05-05T11:30:33.948Z,15.30
2023-05-05T11:33:39.799Z,15.30
2023-05-05T11:36:10.646Z,15.30
2023-05-05T11:38:49.845Z,15.40
2023-05-05T11:41:32.240Z,15.20
2023-05-05T11:44:16.614Z,15.20
2023-05-05T11:46:52.519Z,15.10
2023-05-05T11:49:30.641Z,15.10
2023-05-05T11:52:05.468Z,15.20
2023-05-05T11:54:34.769Z,15.20
2023-05-05T11:57:07.693Z,15.30
2023-05-05T11:59:39.062Z,15.30
2023-05-05T12:02:06.096Z,15.40
2023-05-05T12:04:33.421Z,15.40
2023-05-05T12:07:00.547Z,15.20
2023-05-05T12:09:27.703Z,15.30
2023-05-05T12:11:59.792Z,15.20
2023-05-05T12:14:27.698Z,15.20
2023-05-05T12:17:01.619Z,15.20
2023-05-05T12:19:33.092Z,15.30
2023-05-05T12:22:02.134Z,15.30
2023-05-05T12:24:32.125Z,15.20
2023-05-05T12:27:11.841Z,15.30
2023-05-05T12:29:39.456Z,15.40
2023-05-05T12:32:06.816Z,15.40
2023-05-05T12:34:34.304Z,15.40
2023-05-05T12:37:01.626Z,15.30
2023-05-05T12:39:36.889Z,15.40
2023-05-05T12:42:05.010Z,15.30
2023-05-05T12:44:36.607Z,15.30
2023-05-05T12:47:04.388Z,15.20
2023-05-05T12:49:35.663Z,15.20
2023-05-05T12:52:03.177Z,15.10
2023-05-05T12:54:30.180Z,15.10
2023-05-05T12:56:57.407Z,15.00
2023-05-05T12:59:24.472Z,15.00
2023-05-05T13:01:53.781Z,15.00
2023-05-05T13:04:23.048Z,14.90
2023-05-05T13:07:07.775Z,14.90
2023-05-05T13:09:35.590Z,15.00
2023-05-05T13:12:03.828Z,15.00
2023-05-05T13:14:32.603Z,15.00
2023-05-05T13:16:59.713Z,14.90
2023-05-05T13:19:27.692Z,15.00
2023-05-05T13:21:56.347Z,15.00
2023-05-05T13:24:38.017Z,14.90
2023-05-05T13:27:09.759Z,14.90
2023-05-05T13:29:36.891Z,15.00
2023-05-05T13:32:04.104Z,15.10
2023-05-05T13:34:31.295Z,15.10
2023-05-05T13:36:58.424Z,15.20
2023-05-05T13:39:25.499Z,15.10
2023-05-05T13:41:52.586Z,15.20
2023-05-05T13:44:19.520Z,15.20
2023-05-05T13:46:46.670Z,15.30
2023-05-05T13:49:13.950Z,15.30
2023-05-05T13:51:41.069Z,15.40
2023-05-05T13:54:08.074Z,15.60
2023-05-05T13:56:35.375Z,15.60
2023-05-05T13:59:02.576Z,15.70
2023-05-05T14:01:30.374Z,15.90
2023-05-05T14:03:58.263Z,16.10
2023-05-05T14:06:26.043Z,15.80
2023-05-05T14:08:53.319Z,15.80
2023-05-05T14:11:20.842Z,15.70
2023-05-05T14:13:48.117Z,15.60
2023-05-05T14:16:15.992Z,15.60
2023-05-05T14:18:43.193Z,15.50
2023-05-05T14:21:10.683Z,15.70
2023-05-05T14:23:37.635Z,15.50
2023-05-05T14:26:04.691Z,15.40
2023-05-05T14:28:31.858Z,15.50
2023-05-05T14:30:58.855Z,15.50
2023-05-05T14:33:25.902Z,15.50
2023-05-05T14:35:52.971Z,15.40
2023-05-05T14:38:19.927Z,15.40
2023-05-05T14:40:47.136Z,15.50
2023-05-05T14:43:14.120Z,15.50
2023-05-05T14:45:41.557Z,15.80
2023-05-05T14:48:08.683Z,15.90
2023-05-05T14:50:35.625Z,16.00
2023-05-05T14:53:02.620Z,16.20
2023-05-05T14:55:29.675Z,16.20
2023-05-05T14:57:56.689Z,16.00
2023-05-05T15:00:23.970Z,15.90
2023-05-05T15:02:51.053Z,15.90
2023-05-05T15:05:18.155Z,16.00
2023-05-05T15:07:45.583Z,16.00
2023-05-05T15:10:12.756Z,16.10
2023-05-05T15:12:39.757Z,16.00
2023-05-05T15:15:08.869Z,15.90
2023-05-05T15:17:37.689Z,15.80
2023-05-05T15:20:06.343Z,15.90
2023-05-05T15:22:33.671Z,15.90
2023-05-05T15:25:01.389Z,16.00
2023-05-05T15:27:29.340Z,16.00
2023-05-05T15:29:56.305Z,16.30
2023-05-05T15:32:23.418Z,16.50
2023-05-05T15:34:50.741Z,16.60
2023-05-05T15:37:17.786Z,16.70
2023-05-05T15:39:44.829Z,16.80
2023-05-05T15:42:11.891Z,16.80
2023-05-05T15:44:39.132Z,16.90
2023-05-05T15:47:07.247Z,17.10
2023-05-05T15:49:36.950Z,17.40
2023-05-05T15:52:04.117Z,17.50
2023-05-05T15:54:31.191Z,17.80
2023-05-05T15:56:58.262Z,17.80
2023-05-05T15:59:25.474Z,18.10
2023-05-05T16:01:52.918Z,18.10
2023-05-05T16:04:20.373Z,18.00
2023-05-05T16:06:47.569Z,18.20
2023-05-05T16:09:14.499Z,18.30
2023-05-05T16:11:41.661Z,18.10
2023-05-05T16:14:08.710Z,18.40
2023-05-05T16:16:35.700Z,18.50
2023-05-05T16:19:02.845Z,18.00
2023-05-05T16:21:29.818Z,17.60
2023-05-05T16:23:57.020Z,17.50
2023-05-05T16:26:23.975Z,17.30
2023-05-05T16:28:51.850Z,17.40
2023-05-05T16:31:18.818Z,17.20
2023-05-05T16:33:45.956Z,16.90
2023-05-05T16:36:13.432Z,16.80
2023-05-05T16:38:41.927Z,16.80
2023-05-05T16:41:08.939Z,16.60
2023-05-05T16:43:37.285Z,16.50
2023-05-05T16:46:04.785Z,16.60
2023-05-05T16:48:31.861Z,16.60
2023-05-05T16:50:59.220Z,16.60
2023-05-05T16:53:26.395Z,16.60
2023-05-05T16:55:53.800Z,16.60
2023-05-05T16:58:22.442Z,16.50
2023-05-05T17:00:51.305Z,16.50
2023-05-05T17:03:19.292Z,16.50
2023-05-05T17:05:50.007Z,16.60
2023-05-05T17:08:17.660Z,16.70
2023-05-05T17:10:45.752Z,16.60
2023-05-05T17:13:14.383Z,16.60
2023-05-05T17:15:42.009Z,16.60
2023-05-05T17:18:09.388Z,16.60
2023-05-05T17:20:36.948Z,16.70
2023-05-05T17:23:04.928Z,16.60
2023-05-05T17:25:31.984Z,16.60
2023-05-05T17:27:58.965Z,16.60
2023-05-05T17:30:26.460Z,16.60
2023-05-05T17:32:53.634Z,16.50
2023-05-05T17:35:21.829Z,16.50
2023-05-05T17:37:48.791Z,16.50
2023-05-05T17:40:17.281Z,16.50
2023-05-05T17:42:44.361Z,16.50
2023-05-05T17:45:11.919Z,16.50
2023-05-05T17:47:39.138Z,16.60
2023-05-05T17:50:06.752Z,16.60
2023-05-05T17:52:33.673Z,16.60
2023-05-05T17:55:00.655Z,16.50
2023-05-05T17:57:28.726Z,16.50
2023-05-05T17:59:57.627Z,16.50
2023-05-05T18:02:27.193Z,16.40
2023-05-05T18:04:56.610Z,16.30
2023-05-05T18:07:25.173Z,16.40
2023-05-05T18:09:52.104Z,16.40
2023-05-05T18:12:19.063Z,16.40
2023-05-05T18:14:46.079Z,16.40
2023-05-05T18:17:13.109Z,16.30
2023-05-05T18:19:46.155Z,16.20
2023-05-05T18:22:17.028Z,16.20
2023-05-05T18:24:44.109Z,16.20
2023-05-05T18:27:11.068Z,16.20
2023-05-05T18:29:38.186Z,16.20
2023-05-05T18:32:06.704Z,16.10
2023-05-05T18:34:34.088Z,16.10
2023-05-05T18:37:01.117Z,16.00
2023-05-05T18:39:28.177Z,16.00
2023-05-05T18:41:56.874Z,16.00
2023-05-05T18:44:24.210Z,15.90
2023-05-05T18:46:51.580Z,16.00
2023-05-05T18:49:18.598Z,15.90
2023-05-05T18:51:46.818Z,15.80
2023-05-05T18:54:15.405Z,15.80
2023-05-05T18:56:42.594Z,15.70
2023-05-05T18:59:09.849Z,15.70
2023-05-05T19:01:36.894Z,15.70
2023-05-05T19:04:05.420Z,15.60
2023-05-05T19:06:36.089Z,15.50
2023-05-05T19:09:03.209Z,15.50
2023-05-05T19:11:32.373Z,15.40
2023-05-05T19:13:59.535Z,15.40
2023-05-05T19:16:27.804Z,15.30
2023-05-05T19:18:58.753Z,15.30
2023-05-05T19:21:27.832Z,15.30
2023-05-05T19:23:54.768Z,15.20
2023-05-05T19:26:21.969Z,15.20
2023-05-05T19:28:48.967Z,15.00
2023-05-05T19:31:15.973Z,15.00
2023-05-05T19:33:45.652Z,15.00
2023-05-05T19:36:14.102Z,14.90
2023-05-05T19:38:44.437Z,14.90
2023-05-05T19:41:12.832Z,14.90
2023-05-05T19:43:40.260Z,14.90
2023-05-05T19:46:07.880Z,14.70
2023-05-05T19:48:34.869Z,14.70
2023-05-05T19:51:01.980Z,14.70
2023-05-05T19:53:29.056Z,14.70
2023-05-05T19:55:56.757Z,14.70
2023-05-05T19:58:24.647Z,14.70
2023-05-05T20:00:51.806Z,14.70
2023-05-05T20:03:19.163Z,14.60
2023-05-05T20:05:46.268Z,14.70
2023-05-05T20:08:14.247Z,14.70
2023-05-05T20:10:41.285Z,14.70
2023-05-05T20:13:08.630Z,14.80
2023-05-05T20:15:36.234Z,14.80
2023-05-05T20:18:03.612Z,14.70
2023-05-05T20:20:30.829Z,14.70
2023-05-05T20:22:58.080Z,14.60
2023-05-05T20:25:25.049Z,14.50
2023-05-05T20:27:52.042Z,14.50
2023-05-05T20:30:19.004Z,14.40
2023-05-05T20:32:48.707Z,14.40
2023-05-05T20:35:15.897Z,14.40
2023-05-05T20:37:46.036Z,14.40
2023-05-05T20:40:13.449Z,14.40
2023-05-05T20:42:40.831Z,14.40
2023-05-05T20:45:08.229Z,14.40
2023-05-05T20:47:37.152Z,14.40
2023-05-05T20:50:04.381Z,14.40
2023-05-05T20:52:33.359Z,14.40
2023-05-05T20:55:00.295Z,14.40
2023-05-05T20:57:27.264Z,14.40
2023-05-05T20:59:54.734Z,14.50
2023-05-05T21:02:21.813Z,14.40
2023-05-05T21:04:48.830Z,14.40
2023-05-05T21:07:16.054Z,14.40
2023-05-05T21:09:47.030Z,14.30
2023-05-05T21:12:14.057Z,14.40
2023-05-05T21:14:47.353Z,14.40
2023-05-05T21:17:14.640Z,14.40
2023-05-05T21:19:41.717Z,14.20
2023-05-05T21:22:09.829Z,14.30
2023-05-05T21:24:38.474Z,14.20
2023-05-05T21:27:05.630Z,14.20
2023-05-05T21:29:37.503Z,14.30
2023-05-05T21:32:08.983Z,14.20
2023-05-05T21:34:36.536Z,14.10
2023-05-05T21:37:03.975Z,14.10
2023-05-05T21:39:32.427Z,14.10
2023-05-05T21:42:00.872Z,14.10
2023-05-05T21:44:29.040Z,14.10
2023-05-05T21:46:56.341Z,14.10
2023-05-05T21:49:23.355Z,14.10
2023-05-05T21:51:50.489Z,14.10
2023-05-05T21:54:17.512Z,14.10
2023-05-05T21:56:44.571Z,14.10
2023-05-05T21:59:11.953Z,14.00
2023-05-05T22:01:39.021Z,14.00
2023-05-05T22:04:08.622Z,14.00
2023-05-05T22:06:36.712Z,13.90
2023-05-05T22:09:03.830Z,13.90
2023-05-05T22:11:31.441Z,13.80
2023-05-05T22:13:58.451Z,13.80
2023-05-05T22:16:25.627Z,13.90
2023-05-05T22:18:52.862Z,13.80
2023-05-05T22:21:21.402Z,13.90
2023-05-05T22:23:48.384Z,13.90
2023-05-05T22:26:15.535Z,13.80
2023-05-05T22:28:42.742Z,13.70
2023-05-05T22:31:10.169Z,13.70
2023-05-05T22:33:37.364Z,13.70
2023-05-05T22:36:04.553Z,13.70
2023-05-05T22:38:31.567Z,13.70
2023-05-05T22:40:58.506Z,13.70
2023-05-05T22:43:25.981Z,13.60
2023-05-05T22:45:53.474Z,13.60
2023-05-05T22:48:21.589Z,13.60
2023-05-05T22:50:48.767Z,13.50
2023-05-05T22:53:15.753Z,13.60
2023-05-05T22:55:43.711Z,13.50
2023-05-05T22:58:12.905Z,13.50
2023-05-05T23:00:39.953Z,13.50
2023-05-05T23:03:07.003Z,13.50
2023-05-05T23:05:34.672Z,13.40
2023-05-05T23:08:01.786Z,13.40
2023-05-05T23:10:29.151Z,13.30
2023-05-05T23:12:56.289Z,13.30
2023-05-05T23:15:23.882Z,13.30
2023-05-05T23:17:50.873Z,13.30
2023-05-05T23:20:17.921Z,13.30
2023-05-05T23:22:44.873Z,13.20
2023-05-05T23:25:12.328Z,13.20
2023-05-05T23:27:40.312Z,13.20
2023-05-05T23:30:09.149Z,13.10
2023-05-05T23:32:36.233Z,13.10
2023-05-05T23:35:03.311Z,13.00
2023-05-05T23:37:30.544Z,13.00
2023-05-05T23:39:57.605Z,12.90
2023-05-05T23:42:24.824Z,12.90
2023-05-05T23:44:51.851Z,12.90
2023-05-05T23:47:19.059Z,12.80
2023-05-05T23:49:46.380Z,12.80
2023-05-05T23:52:13.491Z,12.80
2023-05-05T23:54:40.868Z,12.70
2023-05-05T23:57:08.042Z,12.70
2023-05-05T23:59:34.957Z,12.80
